LVHUS SADF-SCEL
Flight info
| Callsign | LVHUS |
|---|---|
| Flight time | 2h 43m |
| Altitude | 20000 |
| Route | DCT NEPIS W13 NIN W9 DOZ L405 UMKAL UMKAL6A |
| Aircraft | SF50/L-SDGRWY/L |
Departure
| Time | 2026-05-06 13:02 |
|---|---|
| Airport | San Fernando Airport (SADF) |
Arrival
| Time | 2026-05-06 15:45 |
|---|---|
| Airport | Comodoro Arturo Merino Benítez International Airport (SCEL) |
| Time | Latitude | Longitude | Altitude | Speed | Heading |
|---|---|---|---|---|---|
| 2026-05-06 12:56 | -34.45704 | -58.58714 | 14 ft | 0 kts | 360° |
| 2026-05-06 12:57 | -34.45691 | -58.58717 | 14 ft | 4 kts | 340° |
| 2026-05-06 12:57 | -34.45669 | -58.58752 | 14 ft | 7 kts | 243° |
| 2026-05-06 12:57 | -34.45696 | -58.58814 | 14 ft | 14 kts | 244° |
| 2026-05-06 12:58 | -34.45736 | -58.58912 | 14 ft | 20 kts | 243° |
| 2026-05-06 12:58 | -34.45807 | -58.59082 | 14 ft | 24 kts | 244° |
| 2026-05-06 12:58 | -34.45845 | -58.59166 | 14 ft | 0 kts | 241° |
| 2026-05-06 12:58 | -34.45870 | -58.59219 | 14 ft | 15 kts | 242° |
| 2026-05-06 12:59 | -34.45935 | -58.59379 | 14 ft | 25 kts | 241° |
| 2026-05-06 12:59 | -34.46031 | -58.59616 | 14 ft | 0 kts | 267° |
| 2026-05-06 12:59 | -34.46002 | -58.59668 | 14 ft | 4 kts | 333° |
| 2026-05-06 13:00 | -34.45999 | -58.59670 | 14 ft | 0 kts | 337° |
| 2026-05-06 13:01 | -34.45997 | -58.59671 | 14 ft | 1 kts | 338° |
| 2026-05-06 13:01 | -34.45954 | -58.59665 | 15 ft | 13 kts | 37° |
| 2026-05-06 13:01 | -34.45714 | -58.59386 | 14 ft | 83 kts | 44° |
| 2026-05-06 13:01 | -34.45174 | -58.58754 | 158 ft | 122 kts | 44° |
| 2026-05-06 13:02 | -34.44448 | -58.57995 | 599 ft | 148 kts | 32° |
| 2026-05-06 13:02 | -34.43470 | -58.57670 | 1147 ft | 168 kts | 4° |
| 2026-05-06 13:02 | -34.42308 | -58.58347 | 1500 ft | 201 kts | 306° |
| 2026-05-06 13:02 | -34.42118 | -58.59685 | 2833 ft | 155 kts | 258° |
| 2026-05-06 13:03 | -34.42560 | -58.60630 | 3755 ft | 120 kts | 234° |
| 2026-05-06 13:03 | -34.43031 | -58.61355 | 4231 ft | 113 kts | 234° |
| 2026-05-06 13:03 | -34.43502 | -58.62075 | 4638 ft | 112 kts | 234° |
| 2026-05-06 13:03 | -34.43966 | -58.62786 | 5017 ft | 112 kts | 234° |
| 2026-05-06 13:04 | -34.44410 | -58.63465 | 5373 ft | 112 kts | 234° |
| 2026-05-06 13:04 | -34.45251 | -58.64754 | 6037 ft | 112 kts | 234° |
| 2026-05-06 13:04 | -34.45748 | -58.65548 | 6432 ft | 112 kts | 240° |
| 2026-05-06 13:05 | -34.46091 | -58.66369 | 6795 ft | 111 kts | 251° |
| 2026-05-06 13:05 | -34.46327 | -58.67252 | 7159 ft | 110 kts | 257° |
| 2026-05-06 13:05 | -34.46501 | -58.68142 | 7513 ft | 110 kts | 260° |
| 2026-05-06 13:05 | -34.46645 | -58.69055 | 7869 ft | 111 kts | 262° |
| 2026-05-06 13:06 | -34.46772 | -58.69973 | 8219 ft | 111 kts | 263° |
| 2026-05-06 13:06 | -34.46890 | -58.70889 | 8563 ft | 111 kts | 263° |
| 2026-05-06 13:06 | -34.47006 | -58.71824 | 8909 ft | 112 kts | 263° |
| 2026-05-06 13:06 | -34.47118 | -58.72752 | 9247 ft | 112 kts | 263° |
| 2026-05-06 13:07 | -34.47229 | -58.73685 | 9581 ft | 113 kts | 263° |
| 2026-05-06 13:07 | -34.47340 | -58.74615 | 9909 ft | 113 kts | 263° |
| 2026-05-06 13:07 | -34.47451 | -58.75557 | 10236 ft | 114 kts | 263° |
| 2026-05-06 13:07 | -34.47562 | -58.76503 | 10558 ft | 114 kts | 262° |
| 2026-05-06 13:08 | -34.47675 | -58.77453 | 10878 ft | 115 kts | 262° |
| 2026-05-06 13:08 | -34.47787 | -58.78408 | 11193 ft | 115 kts | 262° |
| 2026-05-06 13:08 | -34.47900 | -58.79368 | 11506 ft | 116 kts | 262° |
| 2026-05-06 13:08 | -34.48013 | -58.80331 | 11814 ft | 116 kts | 262° |
| 2026-05-06 13:09 | -34.48127 | -58.81303 | 12122 ft | 117 kts | 262° |
| 2026-05-06 13:09 | -34.48240 | -58.82259 | 12433 ft | 116 kts | 262° |
| 2026-05-06 13:09 | -34.48353 | -58.83224 | 12741 ft | 116 kts | 262° |
| 2026-05-06 13:09 | -34.48466 | -58.84185 | 13045 ft | 115 kts | 263° |
| 2026-05-06 13:10 | -34.48578 | -58.85139 | 13342 ft | 115 kts | 263° |
| 2026-05-06 13:10 | -34.48689 | -58.86087 | 13634 ft | 115 kts | 263° |
| 2026-05-06 13:10 | -34.48801 | -58.87045 | 13925 ft | 115 kts | 264° |
| 2026-05-06 13:10 | -34.48913 | -58.88005 | 14213 ft | 115 kts | 264° |
| 2026-05-06 13:11 | -34.49024 | -58.88952 | 14493 ft | 115 kts | 265° |
| 2026-05-06 13:11 | -34.49137 | -58.89919 | 14774 ft | 116 kts | 265° |
| 2026-05-06 13:11 | -34.49249 | -58.90880 | 15049 ft | 116 kts | 265° |
| 2026-05-06 13:11 | -34.49362 | -58.91850 | 15322 ft | 116 kts | 266° |
| 2026-05-06 13:12 | -34.49475 | -58.92816 | 15590 ft | 116 kts | 266° |
| 2026-05-06 13:12 | -34.49587 | -58.93777 | 15851 ft | 117 kts | 267° |
| 2026-05-06 13:12 | -34.49701 | -58.94762 | 16114 ft | 117 kts | 267° |
| 2026-05-06 13:12 | -34.49815 | -58.95742 | 16371 ft | 118 kts | 268° |
| 2026-05-06 13:13 | -34.49928 | -58.96717 | 16622 ft | 119 kts | 268° |
| 2026-05-06 13:13 | -34.50044 | -58.97712 | 16873 ft | 119 kts | 269° |
| 2026-05-06 13:13 | -34.50160 | -58.98713 | 17121 ft | 120 kts | 269° |
| 2026-05-06 13:13 | -34.50275 | -58.99712 | 17363 ft | 121 kts | 269° |
| 2026-05-06 13:14 | -34.50391 | -59.00715 | 17602 ft | 122 kts | 270° |
| 2026-05-06 13:14 | -34.50509 | -59.01733 | 17839 ft | 123 kts | 270° |
| 2026-05-06 13:14 | -34.50628 | -59.02762 | 18074 ft | 123 kts | 270° |
| 2026-05-06 13:14 | -34.50748 | -59.03800 | 18306 ft | 124 kts | 271° |
| 2026-05-06 13:15 | -34.50867 | -59.04833 | 18539 ft | 125 kts | 271° |
| 2026-05-06 13:15 | -34.50988 | -59.05871 | 18778 ft | 125 kts | 271° |
| 2026-05-06 13:15 | -34.51108 | -59.06914 | 19013 ft | 125 kts | 271° |
| 2026-05-06 13:15 | -34.51226 | -59.07944 | 19243 ft | 125 kts | 271° |
| 2026-05-06 13:16 | -34.51333 | -59.08869 | 19448 ft | 125 kts | 271° |
| 2026-05-06 13:16 | -34.51435 | -59.09752 | 19641 ft | 125 kts | 271° |
| 2026-05-06 13:16 | -34.51542 | -59.10684 | 19841 ft | 125 kts | 272° |
| 2026-05-06 13:16 | -34.51672 | -59.11852 | 19916 ft | 139 kts | 271° |
| 2026-05-06 13:17 | -34.51805 | -59.13039 | 19922 ft | 156 kts | 270° |
| 2026-05-06 13:17 | -34.51961 | -59.14395 | 19921 ft | 174 kts | 269° |
| 2026-05-06 13:17 | -34.52132 | -59.15880 | 19919 ft | 190 kts | 268° |
| 2026-05-06 13:17 | -34.52319 | -59.17498 | 19918 ft | 204 kts | 268° |
| 2026-05-06 13:18 | -34.52523 | -59.19262 | 19916 ft | 216 kts | 268° |
| 2026-05-06 13:18 | -34.52737 | -59.21116 | 19915 ft | 227 kts | 267° |
| 2026-05-06 13:18 | -34.52959 | -59.23051 | 19914 ft | 236 kts | 267° |
| 2026-05-06 13:18 | -34.53187 | -59.25036 | 19914 ft | 243 kts | 267° |
| 2026-05-06 13:19 | -34.53424 | -59.27105 | 19913 ft | 249 kts | 267° |
| 2026-05-06 13:19 | -34.53666 | -59.29231 | 19912 ft | 254 kts | 267° |
| 2026-05-06 13:19 | -34.53913 | -59.31398 | 19912 ft | 258 kts | 266° |
| 2026-05-06 13:19 | -34.54158 | -59.33564 | 19912 ft | 262 kts | 266° |
| 2026-05-06 13:20 | -34.54409 | -59.35783 | 19911 ft | 264 kts | 266° |
| 2026-05-06 13:20 | -34.54659 | -59.37988 | 19911 ft | 267 kts | 266° |
| 2026-05-06 13:20 | -34.54902 | -59.40152 | 19911 ft | 268 kts | 266° |
| 2026-05-06 13:20 | -34.55156 | -59.42409 | 19911 ft | 270 kts | 266° |
| 2026-05-06 13:21 | -34.55409 | -59.44657 | 19911 ft | 271 kts | 266° |
| 2026-05-06 13:21 | -34.55663 | -59.46930 | 19911 ft | 272 kts | 266° |
| 2026-05-06 13:21 | -34.55919 | -59.49215 | 19910 ft | 272 kts | 266° |
| 2026-05-06 13:21 | -34.56172 | -59.51481 | 19910 ft | 273 kts | 266° |
| 2026-05-06 13:22 | -34.56428 | -59.53782 | 19910 ft | 274 kts | 266° |
| 2026-05-06 13:22 | -34.56681 | -59.56056 | 19910 ft | 274 kts | 266° |
| 2026-05-06 13:22 | -34.56936 | -59.58350 | 19910 ft | 274 kts | 266° |
| 2026-05-06 13:22 | -34.57067 | -59.60645 | 19909 ft | 272 kts | 273° |
| 2026-05-06 13:23 | -34.57059 | -59.62929 | 19910 ft | 271 kts | 274° |
| 2026-05-06 13:23 | -34.57029 | -59.65228 | 19910 ft | 271 kts | 275° |
| 2026-05-06 13:23 | -34.57001 | -59.67044 | 19913 ft | 272 kts | 275° |
| 2026-05-06 13:23 | -34.56960 | -59.69446 | 19913 ft | 272 kts | 275° |
| 2026-05-06 13:24 | -34.56920 | -59.71731 | 19913 ft | 272 kts | 275° |
| 2026-05-06 13:24 | -34.56879 | -59.74020 | 19913 ft | 272 kts | 275° |
| 2026-05-06 13:24 | -34.56838 | -59.76299 | 19913 ft | 272 kts | 275° |
| 2026-05-06 13:24 | -34.56795 | -59.78604 | 19913 ft | 272 kts | 275° |
| 2026-05-06 13:25 | -34.56752 | -59.80919 | 19912 ft | 272 kts | 275° |
| 2026-05-06 13:25 | -34.56709 | -59.83202 | 19912 ft | 272 kts | 275° |
| 2026-05-06 13:25 | -34.56665 | -59.85483 | 19912 ft | 272 kts | 275° |
| 2026-05-06 13:25 | -34.56621 | -59.87776 | 19912 ft | 272 kts | 275° |
| 2026-05-06 13:26 | -34.56576 | -59.90086 | 19912 ft | 272 kts | 275° |
| 2026-05-06 13:26 | -34.56531 | -59.92374 | 19912 ft | 272 kts | 275° |
| 2026-05-06 13:26 | -34.56486 | -59.94681 | 19912 ft | 272 kts | 275° |
| 2026-05-06 13:26 | -34.56440 | -59.96978 | 19912 ft | 273 kts | 275° |
| 2026-05-06 13:27 | -34.56394 | -59.99286 | 19912 ft | 273 kts | 275° |
| 2026-05-06 13:27 | -34.56347 | -60.01585 | 19912 ft | 273 kts | 275° |
| 2026-05-06 13:27 | -34.56300 | -60.03860 | 19912 ft | 273 kts | 275° |
| 2026-05-06 13:27 | -34.56252 | -60.06175 | 19912 ft | 273 kts | 275° |
| 2026-05-06 13:28 | -34.56205 | -60.08454 | 19912 ft | 273 kts | 275° |
| 2026-05-06 13:28 | -34.56156 | -60.10764 | 19911 ft | 273 kts | 275° |
| 2026-05-06 13:28 | -34.56107 | -60.13036 | 19911 ft | 273 kts | 275° |
| 2026-05-06 13:28 | -34.56057 | -60.15362 | 19911 ft | 273 kts | 275° |
| 2026-05-06 13:29 | -34.56008 | -60.17656 | 19911 ft | 273 kts | 275° |
| 2026-05-06 13:29 | -34.55957 | -60.19959 | 19911 ft | 273 kts | 275° |
| 2026-05-06 13:29 | -34.55907 | -60.22241 | 19911 ft | 273 kts | 275° |
| 2026-05-06 13:29 | -34.55856 | -60.24521 | 19911 ft | 273 kts | 275° |
| 2026-05-06 13:30 | -34.55805 | -60.26823 | 19906 ft | 273 kts | 275° |
| 2026-05-06 13:30 | -34.55753 | -60.29122 | 19898 ft | 273 kts | 275° |
| 2026-05-06 13:30 | -34.55701 | -60.31418 | 19890 ft | 273 kts | 275° |
| 2026-05-06 13:30 | -34.55647 | -60.33743 | 19882 ft | 273 kts | 275° |
| 2026-05-06 13:31 | -34.55594 | -60.36045 | 19874 ft | 273 kts | 275° |
| 2026-05-06 13:31 | -34.55540 | -60.38352 | 19867 ft | 273 kts | 275° |
| 2026-05-06 13:31 | -34.55486 | -60.40655 | 19859 ft | 274 kts | 275° |
| 2026-05-06 13:31 | -34.55431 | -60.42958 | 19851 ft | 274 kts | 275° |
| 2026-05-06 13:32 | -34.55376 | -60.45242 | 19843 ft | 274 kts | 275° |
| 2026-05-06 13:32 | -34.55321 | -60.47561 | 19835 ft | 274 kts | 275° |
| 2026-05-06 13:32 | -34.55265 | -60.49861 | 19830 ft | 274 kts | 275° |
| 2026-05-06 13:32 | -34.55209 | -60.52159 | 19829 ft | 273 kts | 275° |
| 2026-05-06 13:33 | -34.55151 | -60.54481 | 19829 ft | 273 kts | 275° |
| 2026-05-06 13:33 | -34.55094 | -60.56773 | 19829 ft | 273 kts | 275° |
| 2026-05-06 13:33 | -34.55036 | -60.59088 | 19829 ft | 273 kts | 275° |
| 2026-05-06 13:33 | -34.54979 | -60.61360 | 19829 ft | 273 kts | 275° |
| 2026-05-06 13:34 | -34.54920 | -60.63680 | 19829 ft | 273 kts | 275° |
| 2026-05-06 13:34 | -34.54860 | -60.65997 | 19831 ft | 273 kts | 276° |
| 2026-05-06 13:34 | -34.54802 | -60.68271 | 19832 ft | 273 kts | 276° |
| 2026-05-06 13:34 | -34.54742 | -60.70573 | 19832 ft | 273 kts | 276° |
| 2026-05-06 13:35 | -34.54682 | -60.72866 | 19831 ft | 273 kts | 276° |
| 2026-05-06 13:35 | -34.54621 | -60.75194 | 19831 ft | 273 kts | 276° |
| 2026-05-06 13:35 | -34.54560 | -60.77478 | 19831 ft | 273 kts | 276° |
| 2026-05-06 13:35 | -34.54498 | -60.79785 | 19831 ft | 273 kts | 276° |
| 2026-05-06 13:36 | -34.54437 | -60.82062 | 19831 ft | 273 kts | 276° |
| 2026-05-06 13:36 | -34.54374 | -60.84372 | 19831 ft | 273 kts | 276° |
| 2026-05-06 13:36 | -34.54311 | -60.86682 | 19831 ft | 273 kts | 276° |
| 2026-05-06 13:36 | -34.54248 | -60.88969 | 19831 ft | 273 kts | 276° |
| 2026-05-06 13:37 | -34.54185 | -60.91271 | 19831 ft | 273 kts | 276° |
| 2026-05-06 13:37 | -34.54042 | -60.93544 | 19828 ft | 271 kts | 282° |
| 2026-05-06 13:37 | -34.53736 | -60.95803 | 19830 ft | 270 kts | 283° |
| 2026-05-06 13:37 | -34.53404 | -60.98044 | 19830 ft | 270 kts | 284° |
| 2026-05-06 13:38 | -34.53065 | -61.00275 | 19830 ft | 270 kts | 284° |
| 2026-05-06 13:38 | -34.52723 | -61.02508 | 19830 ft | 270 kts | 284° |
| 2026-05-06 13:38 | -34.52378 | -61.04747 | 19830 ft | 271 kts | 284° |
| 2026-05-06 13:38 | -34.52032 | -61.06989 | 19830 ft | 271 kts | 284° |
| 2026-05-06 13:39 | -34.51683 | -61.09243 | 19830 ft | 271 kts | 284° |
| 2026-05-06 13:39 | -34.51334 | -61.11503 | 19830 ft | 271 kts | 284° |
| 2026-05-06 13:39 | -34.50985 | -61.13750 | 19830 ft | 272 kts | 284° |
| 2026-05-06 13:39 | -34.50637 | -61.15989 | 19830 ft | 272 kts | 283° |
| 2026-05-06 13:40 | -34.50171 | -61.18990 | 19830 ft | 272 kts | 283° |
| 2026-05-06 13:40 | -34.49935 | -61.20507 | 19830 ft | 273 kts | 283° |
| 2026-05-06 13:40 | -34.49586 | -61.22748 | 19830 ft | 273 kts | 283° |
| 2026-05-06 13:40 | -34.49234 | -61.25004 | 19825 ft | 273 kts | 283° |
| 2026-05-06 13:41 | -34.48875 | -61.27300 | 19747 ft | 276 kts | 283° |
| 2026-05-06 13:41 | -34.48520 | -61.29571 | 19739 ft | 276 kts | 283° |
| 2026-05-06 13:41 | -34.48159 | -61.31874 | 19738 ft | 276 kts | 283° |
| 2026-05-06 13:41 | -34.47803 | -61.34143 | 19738 ft | 275 kts | 283° |
| 2026-05-06 13:42 | -34.47447 | -61.36415 | 19738 ft | 275 kts | 283° |
| 2026-05-06 13:42 | -34.47091 | -61.38679 | 19738 ft | 275 kts | 283° |
| 2026-05-06 13:42 | -34.46730 | -61.40969 | 19738 ft | 275 kts | 283° |
| 2026-05-06 13:42 | -34.46375 | -61.43227 | 19738 ft | 275 kts | 283° |
| 2026-05-06 13:43 | -34.46014 | -61.45507 | 19738 ft | 275 kts | 283° |
| 2026-05-06 13:43 | -34.45658 | -61.47763 | 19738 ft | 275 kts | 283° |
| 2026-05-06 13:43 | -34.45296 | -61.50050 | 19738 ft | 274 kts | 283° |
| 2026-05-06 13:43 | -34.44940 | -61.52297 | 19737 ft | 274 kts | 283° |
| 2026-05-06 13:44 | -34.44578 | -61.54577 | 19737 ft | 274 kts | 283° |
| 2026-05-06 13:44 | -34.44219 | -61.56828 | 19737 ft | 274 kts | 283° |
| 2026-05-06 13:44 | -34.43856 | -61.59093 | 19737 ft | 274 kts | 283° |
| 2026-05-06 13:44 | -34.43492 | -61.61368 | 19737 ft | 274 kts | 283° |
| 2026-05-06 13:45 | -34.43127 | -61.63647 | 19737 ft | 274 kts | 283° |
| 2026-05-06 13:45 | -34.42402 | -61.68160 | 19739 ft | 274 kts | 284° |
| 2026-05-06 13:45 | -34.42034 | -61.70447 | 19739 ft | 274 kts | 284° |
| 2026-05-06 13:46 | -34.41670 | -61.72706 | 19739 ft | 274 kts | 284° |
| 2026-05-06 13:46 | -34.41304 | -61.74972 | 19739 ft | 274 kts | 284° |
| 2026-05-06 13:46 | -34.40941 | -61.77224 | 19739 ft | 274 kts | 284° |
| 2026-05-06 13:46 | -34.40574 | -61.79491 | 19739 ft | 274 kts | 284° |
| 2026-05-06 13:47 | -34.40210 | -61.81743 | 19739 ft | 274 kts | 284° |
| 2026-05-06 13:47 | -34.39843 | -61.84005 | 19739 ft | 274 kts | 284° |
| 2026-05-06 13:47 | -34.39474 | -61.86279 | 19739 ft | 274 kts | 284° |
| 2026-05-06 13:47 | -34.39103 | -61.88563 | 19739 ft | 274 kts | 284° |
| 2026-05-06 13:48 | -34.38736 | -61.90816 | 19739 ft | 274 kts | 284° |
| 2026-05-06 13:48 | -34.38364 | -61.93097 | 19738 ft | 274 kts | 284° |
| 2026-05-06 13:48 | -34.37999 | -61.95335 | 19738 ft | 274 kts | 284° |
| 2026-05-06 13:48 | -34.37629 | -61.97602 | 19738 ft | 274 kts | 284° |
| 2026-05-06 13:49 | -34.37255 | -61.99890 | 19738 ft | 274 kts | 284° |
| 2026-05-06 13:49 | -34.36888 | -62.02132 | 19738 ft | 274 kts | 284° |
| 2026-05-06 13:49 | -34.36514 | -62.04419 | 19738 ft | 274 kts | 284° |
| 2026-05-06 13:49 | -34.36143 | -62.06677 | 19738 ft | 274 kts | 284° |
| 2026-05-06 13:50 | -34.35773 | -62.08924 | 19738 ft | 274 kts | 284° |
| 2026-05-06 13:50 | -34.35398 | -62.11208 | 19738 ft | 274 kts | 284° |
| 2026-05-06 13:50 | -34.35027 | -62.13460 | 19738 ft | 274 kts | 284° |
| 2026-05-06 13:50 | -34.34653 | -62.15728 | 19738 ft | 274 kts | 284° |
| 2026-05-06 13:51 | -34.34282 | -62.17976 | 19737 ft | 274 kts | 284° |
| 2026-05-06 13:51 | -34.33909 | -62.20231 | 19734 ft | 275 kts | 284° |
| 2026-05-06 13:51 | -34.33534 | -62.22498 | 19732 ft | 275 kts | 284° |
| 2026-05-06 13:51 | -34.33156 | -62.24780 | 19730 ft | 275 kts | 284° |
| 2026-05-06 13:52 | -34.32783 | -62.27025 | 19727 ft | 275 kts | 284° |
| 2026-05-06 13:52 | -34.32402 | -62.29319 | 19723 ft | 275 kts | 284° |
| 2026-05-06 13:52 | -34.32030 | -62.31557 | 19721 ft | 275 kts | 284° |
| 2026-05-06 13:52 | -34.31652 | -62.33825 | 19719 ft | 275 kts | 284° |
| 2026-05-06 13:53 | -34.31272 | -62.36105 | 19716 ft | 275 kts | 284° |
| 2026-05-06 13:53 | -34.30893 | -62.38378 | 19713 ft | 275 kts | 284° |
| 2026-05-06 13:53 | -34.30517 | -62.40625 | 19711 ft | 275 kts | 284° |
| 2026-05-06 13:53 | -34.30139 | -62.42885 | 19710 ft | 275 kts | 284° |
| 2026-05-06 13:54 | -34.29761 | -62.45144 | 19710 ft | 274 kts | 284° |
| 2026-05-06 13:54 | -34.29380 | -62.47416 | 19710 ft | 274 kts | 284° |
| 2026-05-06 13:54 | -34.29001 | -62.49673 | 19709 ft | 274 kts | 284° |
| 2026-05-06 13:54 | -34.28621 | -62.51934 | 19710 ft | 274 kts | 284° |
| 2026-05-06 13:55 | -34.28244 | -62.54174 | 19710 ft | 274 kts | 284° |
| 2026-05-06 13:55 | -34.27864 | -62.56428 | 19709 ft | 274 kts | 284° |
| 2026-05-06 13:55 | -34.27482 | -62.58693 | 19709 ft | 274 kts | 284° |
| 2026-05-06 13:55 | -34.27104 | -62.60931 | 19709 ft | 274 kts | 284° |
| 2026-05-06 13:56 | -34.26723 | -62.63185 | 19709 ft | 274 kts | 284° |
| 2026-05-06 13:56 | -34.26338 | -62.65457 | 19710 ft | 274 kts | 284° |
| 2026-05-06 13:56 | -34.25954 | -62.67725 | 19711 ft | 274 kts | 284° |
| 2026-05-06 13:56 | -34.25573 | -62.69965 | 19711 ft | 274 kts | 284° |
| 2026-05-06 13:57 | -34.25189 | -62.72230 | 19711 ft | 274 kts | 284° |
| 2026-05-06 13:57 | -34.24808 | -62.74470 | 19711 ft | 274 kts | 284° |
| 2026-05-06 13:57 | -34.24419 | -62.76753 | 19711 ft | 274 kts | 284° |
| 2026-05-06 13:57 | -34.24040 | -62.78976 | 19711 ft | 274 kts | 284° |
| 2026-05-06 13:58 | -34.23649 | -62.81269 | 19711 ft | 274 kts | 284° |
| 2026-05-06 13:58 | -34.23265 | -62.83517 | 19712 ft | 274 kts | 284° |
| 2026-05-06 13:58 | -34.22883 | -62.85746 | 19712 ft | 274 kts | 284° |
| 2026-05-06 13:58 | -34.22496 | -62.88006 | 19713 ft | 274 kts | 284° |
| 2026-05-06 13:59 | -34.22106 | -62.90281 | 19714 ft | 274 kts | 284° |
| 2026-05-06 13:59 | -34.21845 | -62.91799 | 19714 ft | 274 kts | 284° |
| 2026-05-06 13:59 | -34.21349 | -62.94687 | 19715 ft | 274 kts | 284° |
| 2026-05-06 13:59 | -34.20960 | -62.96946 | 19715 ft | 274 kts | 284° |
| 2026-05-06 14:00 | -34.20573 | -62.99194 | 19716 ft | 274 kts | 284° |
| 2026-05-06 14:00 | -34.20183 | -63.01455 | 19717 ft | 274 kts | 284° |
| 2026-05-06 14:00 | -34.19797 | -63.03689 | 19717 ft | 274 kts | 284° |
| 2026-05-06 14:00 | -34.19406 | -63.05954 | 19718 ft | 274 kts | 283° |
| 2026-05-06 14:01 | -34.19020 | -63.08181 | 19719 ft | 274 kts | 283° |
| 2026-05-06 14:01 | -34.18630 | -63.10437 | 19719 ft | 274 kts | 283° |
| 2026-05-06 14:01 | -34.18238 | -63.12692 | 19720 ft | 274 kts | 283° |
| 2026-05-06 14:01 | -34.17847 | -63.14949 | 19722 ft | 274 kts | 283° |
| 2026-05-06 14:02 | -34.17457 | -63.17191 | 19724 ft | 274 kts | 283° |
| 2026-05-06 14:02 | -34.17069 | -63.19421 | 19726 ft | 274 kts | 283° |
| 2026-05-06 14:02 | -34.16674 | -63.21683 | 19727 ft | 274 kts | 283° |
| 2026-05-06 14:02 | -34.16285 | -63.23920 | 19729 ft | 274 kts | 283° |
| 2026-05-06 14:03 | -34.15890 | -63.26178 | 19731 ft | 274 kts | 283° |
| 2026-05-06 14:03 | -34.15496 | -63.28429 | 19732 ft | 274 kts | 283° |
| 2026-05-06 14:03 | -34.15107 | -63.30652 | 19733 ft | 274 kts | 283° |
| 2026-05-06 14:03 | -34.14711 | -63.32912 | 19735 ft | 274 kts | 283° |
| 2026-05-06 14:04 | -34.14318 | -63.35152 | 19736 ft | 274 kts | 283° |
| 2026-05-06 14:04 | -34.13895 | -63.37390 | 19736 ft | 273 kts | 284° |
| 2026-05-06 14:04 | -34.13463 | -63.39615 | 19737 ft | 273 kts | 284° |
| 2026-05-06 14:04 | -34.13026 | -63.41856 | 19737 ft | 273 kts | 284° |
| 2026-05-06 14:05 | -34.12589 | -63.44090 | 19736 ft | 273 kts | 284° |
| 2026-05-06 14:05 | -34.12150 | -63.46328 | 19736 ft | 273 kts | 284° |
| 2026-05-06 14:05 | -34.11709 | -63.48575 | 19736 ft | 273 kts | 284° |
| 2026-05-06 14:05 | -34.11275 | -63.50784 | 19736 ft | 273 kts | 284° |
| 2026-05-06 14:06 | -34.10835 | -63.53023 | 19736 ft | 273 kts | 284° |
| 2026-05-06 14:06 | -34.10398 | -63.55245 | 19736 ft | 273 kts | 284° |
| 2026-05-06 14:06 | -34.09955 | -63.57493 | 19736 ft | 273 kts | 284° |
| 2026-05-06 14:06 | -34.09514 | -63.59727 | 19736 ft | 273 kts | 284° |
| 2026-05-06 14:07 | -34.09074 | -63.61956 | 19736 ft | 273 kts | 284° |
| 2026-05-06 14:07 | -34.08630 | -63.64204 | 19736 ft | 273 kts | 284° |
| 2026-05-06 14:07 | -34.08189 | -63.66431 | 19738 ft | 273 kts | 285° |
| 2026-05-06 14:07 | -34.07749 | -63.68652 | 19738 ft | 274 kts | 285° |
| 2026-05-06 14:08 | -34.07305 | -63.70892 | 19738 ft | 274 kts | 285° |
| 2026-05-06 14:08 | -34.06865 | -63.73107 | 19738 ft | 274 kts | 285° |
| 2026-05-06 14:08 | -34.06422 | -63.75341 | 19738 ft | 274 kts | 285° |
| 2026-05-06 14:08 | -34.05978 | -63.77573 | 19738 ft | 274 kts | 285° |
| 2026-05-06 14:09 | -34.05534 | -63.79805 | 19738 ft | 274 kts | 285° |
| 2026-05-06 14:09 | -34.05086 | -63.82051 | 19738 ft | 274 kts | 285° |
| 2026-05-06 14:09 | -34.04645 | -63.84261 | 19738 ft | 274 kts | 285° |
| 2026-05-06 14:09 | -34.04194 | -63.86522 | 19738 ft | 274 kts | 285° |
| 2026-05-06 14:10 | -34.03749 | -63.88747 | 19738 ft | 274 kts | 285° |
| 2026-05-06 14:10 | -34.03304 | -63.90973 | 19738 ft | 274 kts | 285° |
| 2026-05-06 14:10 | -34.02855 | -63.93212 | 19737 ft | 274 kts | 285° |
| 2026-05-06 14:10 | -34.02410 | -63.95431 | 19737 ft | 274 kts | 285° |
| 2026-05-06 14:11 | -34.01962 | -63.97664 | 19737 ft | 274 kts | 285° |
| 2026-05-06 14:11 | -34.01514 | -63.99894 | 19812 ft | 271 kts | 285° |
| 2026-05-06 14:11 | -34.01071 | -64.02097 | 19801 ft | 272 kts | 285° |
| 2026-05-06 14:11 | -34.00619 | -64.04345 | 19743 ft | 274 kts | 285° |
| 2026-05-06 14:12 | -34.00169 | -64.06576 | 19738 ft | 274 kts | 285° |
| 2026-05-06 14:12 | -33.99722 | -64.08795 | 19737 ft | 274 kts | 285° |
| 2026-05-06 14:12 | -33.99273 | -64.11018 | 19737 ft | 274 kts | 285° |
| 2026-05-06 14:12 | -33.98820 | -64.13261 | 19737 ft | 274 kts | 285° |
| 2026-05-06 14:13 | -33.98372 | -64.15477 | 19737 ft | 274 kts | 285° |
| 2026-05-06 14:13 | -33.97918 | -64.17719 | 19737 ft | 274 kts | 285° |
| 2026-05-06 14:13 | -33.97465 | -64.19955 | 19737 ft | 274 kts | 285° |
| 2026-05-06 14:13 | -33.97014 | -64.22176 | 19737 ft | 274 kts | 285° |
| 2026-05-06 14:14 | -33.96558 | -64.24420 | 19736 ft | 274 kts | 285° |
| 2026-05-06 14:14 | -33.96109 | -64.26633 | 19736 ft | 274 kts | 285° |
| 2026-05-06 14:14 | -33.95655 | -64.28858 | 19736 ft | 274 kts | 285° |
| 2026-05-06 14:14 | -33.95204 | -64.31074 | 19736 ft | 274 kts | 285° |
| 2026-05-06 14:15 | -33.94749 | -64.33308 | 19736 ft | 274 kts | 285° |
| 2026-05-06 14:15 | -33.94292 | -64.35544 | 19736 ft | 274 kts | 285° |
| 2026-05-06 14:15 | -33.93842 | -64.37750 | 19736 ft | 274 kts | 285° |
| 2026-05-06 14:15 | -33.93385 | -64.39986 | 19736 ft | 274 kts | 285° |
| 2026-05-06 14:16 | -33.92934 | -64.42188 | 19736 ft | 274 kts | 285° |
| 2026-05-06 14:16 | -33.92477 | -64.44417 | 19736 ft | 274 kts | 285° |
| 2026-05-06 14:16 | -33.92022 | -64.46635 | 19736 ft | 274 kts | 285° |
| 2026-05-06 14:16 | -33.91562 | -64.48874 | 19736 ft | 274 kts | 285° |
| 2026-05-06 14:17 | -33.91110 | -64.51075 | 19736 ft | 274 kts | 285° |
| 2026-05-06 14:17 | -33.90650 | -64.53313 | 19736 ft | 274 kts | 285° |
| 2026-05-06 14:17 | -33.90195 | -64.55524 | 19735 ft | 274 kts | 285° |
| 2026-05-06 14:17 | -33.89737 | -64.57752 | 19738 ft | 274 kts | 285° |
| 2026-05-06 14:18 | -33.89280 | -64.59968 | 19739 ft | 274 kts | 285° |
| 2026-05-06 14:18 | -33.88818 | -64.62203 | 19739 ft | 274 kts | 285° |
| 2026-05-06 14:18 | -33.88359 | -64.64428 | 19738 ft | 274 kts | 285° |
| 2026-05-06 14:18 | -33.87899 | -64.66649 | 19741 ft | 274 kts | 285° |
| 2026-05-06 14:19 | -33.87437 | -64.68883 | 19741 ft | 274 kts | 285° |
| 2026-05-06 14:19 | -33.86977 | -64.71104 | 19741 ft | 274 kts | 285° |
| 2026-05-06 14:19 | -33.86516 | -64.73328 | 19741 ft | 275 kts | 285° |
| 2026-05-06 14:19 | -33.86055 | -64.75550 | 19741 ft | 275 kts | 285° |
| 2026-05-06 14:20 | -33.85591 | -64.77783 | 19741 ft | 275 kts | 285° |
| 2026-05-06 14:20 | -33.85125 | -64.80022 | 19741 ft | 275 kts | 285° |
| 2026-05-06 14:20 | -33.84662 | -64.82248 | 19741 ft | 275 kts | 285° |
| 2026-05-06 14:20 | -33.84201 | -64.84459 | 19740 ft | 275 kts | 285° |
| 2026-05-06 14:21 | -33.83734 | -64.86697 | 19740 ft | 274 kts | 285° |
| 2026-05-06 14:21 | -33.83272 | -64.88910 | 19740 ft | 274 kts | 285° |
| 2026-05-06 14:21 | -33.82807 | -64.91133 | 19740 ft | 274 kts | 284° |
| 2026-05-06 14:21 | -33.82344 | -64.93349 | 19740 ft | 274 kts | 284° |
| 2026-05-06 14:22 | -33.81874 | -64.95589 | 19739 ft | 274 kts | 284° |
| 2026-05-06 14:22 | -33.81412 | -64.97794 | 19739 ft | 273 kts | 284° |
| 2026-05-06 14:22 | -33.80951 | -64.99992 | 19739 ft | 273 kts | 284° |
| 2026-05-06 14:22 | -33.80484 | -65.02221 | 19739 ft | 273 kts | 284° |
| 2026-05-06 14:23 | -33.80018 | -65.04436 | 19739 ft | 273 kts | 283° |
| 2026-05-06 14:23 | -33.79552 | -65.06651 | 19739 ft | 273 kts | 283° |
| 2026-05-06 14:23 | -33.79093 | -65.08833 | 19739 ft | 273 kts | 283° |
| 2026-05-06 14:23 | -33.78625 | -65.11050 | 19739 ft | 273 kts | 283° |
| 2026-05-06 14:24 | -33.78159 | -65.13261 | 19739 ft | 273 kts | 283° |
| 2026-05-06 14:24 | -33.77687 | -65.15494 | 19738 ft | 273 kts | 283° |
| 2026-05-06 14:24 | -33.77226 | -65.17677 | 19738 ft | 273 kts | 283° |
| 2026-05-06 14:24 | -33.76757 | -65.19893 | 19738 ft | 273 kts | 283° |
| 2026-05-06 14:25 | -33.76288 | -65.22107 | 19738 ft | 273 kts | 283° |
| 2026-05-06 14:25 | -33.75817 | -65.24332 | 19738 ft | 273 kts | 283° |
| 2026-05-06 14:25 | -33.75348 | -65.26539 | 19738 ft | 273 kts | 283° |
| 2026-05-06 14:25 | -33.74882 | -65.28736 | 19738 ft | 273 kts | 283° |
| 2026-05-06 14:26 | -33.74413 | -65.30939 | 19738 ft | 273 kts | 283° |
| 2026-05-06 14:26 | -33.73940 | -65.33161 | 19738 ft | 273 kts | 283° |
| 2026-05-06 14:26 | -33.73471 | -65.35366 | 19738 ft | 273 kts | 283° |
| 2026-05-06 14:26 | -33.72996 | -65.37581 | 19737 ft | 273 kts | 284° |
| 2026-05-06 14:27 | -33.72508 | -65.39768 | 19737 ft | 273 kts | 284° |
| 2026-05-06 14:27 | -33.72014 | -65.41956 | 19737 ft | 273 kts | 284° |
| 2026-05-06 14:27 | -33.71511 | -65.44174 | 19737 ft | 273 kts | 284° |
| 2026-05-06 14:27 | -33.71018 | -65.46347 | 19737 ft | 273 kts | 284° |
| 2026-05-06 14:28 | -33.70513 | -65.48570 | 19737 ft | 273 kts | 284° |
| 2026-05-06 14:28 | -33.70018 | -65.50748 | 19737 ft | 273 kts | 284° |
| 2026-05-06 14:28 | -33.69517 | -65.52947 | 19737 ft | 273 kts | 284° |
| 2026-05-06 14:28 | -33.69017 | -65.55145 | 19737 ft | 273 kts | 284° |
| 2026-05-06 14:29 | -33.68519 | -65.57328 | 19737 ft | 273 kts | 284° |
| 2026-05-06 14:29 | -33.68016 | -65.59533 | 19737 ft | 273 kts | 284° |
| 2026-05-06 14:29 | -33.67515 | -65.61726 | 19737 ft | 273 kts | 284° |
| 2026-05-06 14:29 | -33.67016 | -65.63908 | 19737 ft | 273 kts | 284° |
| 2026-05-06 14:30 | -33.66508 | -65.66129 | 19739 ft | 273 kts | 285° |
| 2026-05-06 14:30 | -33.66008 | -65.68311 | 19740 ft | 273 kts | 285° |
| 2026-05-06 14:30 | -33.65504 | -65.70512 | 19740 ft | 273 kts | 285° |
| 2026-05-06 14:30 | -33.65004 | -65.72690 | 19740 ft | 273 kts | 285° |
| 2026-05-06 14:31 | -33.64495 | -65.74908 | 19740 ft | 273 kts | 285° |
| 2026-05-06 14:31 | -33.63992 | -65.77098 | 19740 ft | 273 kts | 285° |
| 2026-05-06 14:31 | -33.63486 | -65.79295 | 19740 ft | 273 kts | 285° |
| 2026-05-06 14:31 | -33.62983 | -65.81479 | 19740 ft | 273 kts | 285° |
| 2026-05-06 14:32 | -33.62472 | -65.83696 | 19739 ft | 273 kts | 285° |
| 2026-05-06 14:32 | -33.61972 | -65.85868 | 19739 ft | 273 kts | 285° |
| 2026-05-06 14:32 | -33.61460 | -65.88084 | 19739 ft | 273 kts | 285° |
| 2026-05-06 14:32 | -33.60957 | -65.90263 | 19739 ft | 273 kts | 285° |
| 2026-05-06 14:33 | -33.60446 | -65.92472 | 19739 ft | 273 kts | 285° |
| 2026-05-06 14:33 | -33.59936 | -65.94672 | 19739 ft | 273 kts | 285° |
| 2026-05-06 14:33 | -33.59431 | -65.96854 | 19739 ft | 273 kts | 285° |
| 2026-05-06 14:33 | -33.58923 | -65.99047 | 19739 ft | 273 kts | 285° |
| 2026-05-06 14:34 | -33.58409 | -66.01244 | 19738 ft | 273 kts | 285° |
| 2026-05-06 14:34 | -33.57867 | -66.03426 | 19739 ft | 273 kts | 286° |
| 2026-05-06 14:34 | -33.57315 | -66.05613 | 19739 ft | 273 kts | 286° |
| 2026-05-06 14:34 | -33.56762 | -66.07799 | 19739 ft | 273 kts | 286° |
| 2026-05-06 14:35 | -33.56208 | -66.09982 | 19739 ft | 273 kts | 286° |
| 2026-05-06 14:35 | -33.55662 | -66.12133 | 19738 ft | 273 kts | 286° |
| 2026-05-06 14:35 | -33.55103 | -66.14329 | 19738 ft | 273 kts | 286° |
| 2026-05-06 14:35 | -33.54549 | -66.16508 | 19738 ft | 273 kts | 286° |
| 2026-05-06 14:36 | -33.53996 | -66.18680 | 19738 ft | 273 kts | 286° |
| 2026-05-06 14:36 | -33.53446 | -66.20840 | 19738 ft | 273 kts | 286° |
| 2026-05-06 14:36 | -33.52886 | -66.23034 | 19738 ft | 273 kts | 286° |
| 2026-05-06 14:36 | -33.52335 | -66.25195 | 19738 ft | 273 kts | 286° |
| 2026-05-06 14:37 | -33.51780 | -66.27364 | 19738 ft | 273 kts | 286° |
| 2026-05-06 14:37 | -33.51218 | -66.29564 | 19738 ft | 273 kts | 286° |
| 2026-05-06 14:37 | -33.50663 | -66.31731 | 19738 ft | 273 kts | 286° |
| 2026-05-06 14:37 | -33.50109 | -66.33896 | 19738 ft | 273 kts | 286° |
| 2026-05-06 14:38 | -33.49548 | -66.36087 | 19738 ft | 273 kts | 286° |
| 2026-05-06 14:38 | -33.48989 | -66.38264 | 19737 ft | 273 kts | 286° |
| 2026-05-06 14:38 | -33.48437 | -66.40414 | 19737 ft | 273 kts | 286° |
| 2026-05-06 14:38 | -33.47875 | -66.42605 | 19737 ft | 273 kts | 286° |
| 2026-05-06 14:39 | -33.47135 | -66.45481 | 19737 ft | 273 kts | 286° |
| 2026-05-06 14:39 | -33.46759 | -66.46941 | 19737 ft | 273 kts | 286° |
| 2026-05-06 14:39 | -33.46202 | -66.49101 | 19737 ft | 273 kts | 286° |
| 2026-05-06 14:39 | -33.45640 | -66.51284 | 19737 ft | 273 kts | 286° |
| 2026-05-06 14:40 | -33.45081 | -66.53450 | 19737 ft | 273 kts | 286° |
| 2026-05-06 14:40 | -33.44519 | -66.55625 | 19737 ft | 273 kts | 286° |
| 2026-05-06 14:40 | -33.43961 | -66.57788 | 19737 ft | 273 kts | 286° |
| 2026-05-06 14:40 | -33.43400 | -66.59957 | 19737 ft | 273 kts | 286° |
| 2026-05-06 14:41 | -33.42834 | -66.62144 | 19742 ft | 273 kts | 286° |
| 2026-05-06 14:41 | -33.42273 | -66.64311 | 19745 ft | 273 kts | 286° |
| 2026-05-06 14:41 | -33.41716 | -66.66457 | 19748 ft | 273 kts | 287° |
| 2026-05-06 14:41 | -33.41151 | -66.68635 | 19749 ft | 273 kts | 287° |
| 2026-05-06 14:42 | -33.40586 | -66.70811 | 19749 ft | 273 kts | 287° |
| 2026-05-06 14:42 | -33.40020 | -66.72990 | 19749 ft | 273 kts | 287° |
| 2026-05-06 14:42 | -33.39460 | -66.75146 | 19749 ft | 273 kts | 287° |
| 2026-05-06 14:42 | -33.38890 | -66.77336 | 19749 ft | 273 kts | 287° |
| 2026-05-06 14:43 | -33.38331 | -66.79481 | 19749 ft | 274 kts | 287° |
| 2026-05-06 14:43 | -33.37764 | -66.81657 | 19749 ft | 274 kts | 287° |
| 2026-05-06 14:43 | -33.37196 | -66.83833 | 19748 ft | 274 kts | 287° |
| 2026-05-06 14:43 | -33.36630 | -66.86002 | 19748 ft | 274 kts | 287° |
| 2026-05-06 14:44 | -33.36066 | -66.88162 | 19748 ft | 274 kts | 287° |
| 2026-05-06 14:44 | -33.35494 | -66.90347 | 19748 ft | 274 kts | 287° |
| 2026-05-06 14:44 | -33.34930 | -66.92503 | 19748 ft | 274 kts | 287° |
| 2026-05-06 14:45 | -33.33793 | -66.96845 | 19748 ft | 274 kts | 287° |
| 2026-05-06 14:45 | -33.33225 | -66.99009 | 19749 ft | 273 kts | 287° |
| 2026-05-06 14:45 | -33.32659 | -67.01166 | 19751 ft | 273 kts | 287° |
| 2026-05-06 14:45 | -33.32093 | -67.03320 | 19753 ft | 272 kts | 287° |
| 2026-05-06 14:46 | -33.31511 | -67.05484 | 19754 ft | 272 kts | 288° |
| 2026-05-06 14:46 | -33.30916 | -67.07620 | 19756 ft | 271 kts | 289° |
| 2026-05-06 14:46 | -33.30322 | -67.09740 | 19759 ft | 270 kts | 289° |
| 2026-05-06 14:46 | -33.29726 | -67.11863 | 19761 ft | 269 kts | 289° |
| 2026-05-06 14:47 | -33.29131 | -67.13979 | 19764 ft | 269 kts | 289° |
| 2026-05-06 14:47 | -33.28537 | -67.16090 | 19767 ft | 268 kts | 290° |
| 2026-05-06 14:47 | -33.27947 | -67.18187 | 19769 ft | 267 kts | 290° |
| 2026-05-06 14:47 | -33.27355 | -67.20284 | 19772 ft | 266 kts | 290° |
| 2026-05-06 14:48 | -33.26765 | -67.22375 | 19773 ft | 266 kts | 290° |
| 2026-05-06 14:48 | -33.26173 | -67.24470 | 19773 ft | 266 kts | 290° |
| 2026-05-06 14:48 | -33.25583 | -67.26560 | 19773 ft | 266 kts | 290° |
| 2026-05-06 14:48 | -33.24994 | -67.28642 | 19773 ft | 265 kts | 290° |
| 2026-05-06 14:49 | -33.24397 | -67.30752 | 19772 ft | 265 kts | 290° |
| 2026-05-06 14:49 | -33.23808 | -67.32831 | 19772 ft | 265 kts | 290° |
| 2026-05-06 14:49 | -33.23220 | -67.34906 | 19772 ft | 265 kts | 290° |
| 2026-05-06 14:49 | -33.22632 | -67.36980 | 19772 ft | 265 kts | 290° |
| 2026-05-06 14:50 | -33.22042 | -67.39062 | 19772 ft | 265 kts | 290° |
| 2026-05-06 14:50 | -33.21448 | -67.41151 | 19772 ft | 265 kts | 290° |
| 2026-05-06 14:50 | -33.20858 | -67.43230 | 19772 ft | 265 kts | 290° |
| 2026-05-06 14:50 | -33.20266 | -67.45310 | 19772 ft | 265 kts | 290° |
| 2026-05-06 14:51 | -33.19678 | -67.47374 | 19772 ft | 265 kts | 290° |
| 2026-05-06 14:51 | -33.19087 | -67.49451 | 19771 ft | 265 kts | 290° |
| 2026-05-06 14:51 | -33.18496 | -67.51525 | 19771 ft | 265 kts | 290° |
| 2026-05-06 14:51 | -33.17903 | -67.53603 | 19771 ft | 265 kts | 290° |
| 2026-05-06 14:52 | -33.17305 | -67.55702 | 19771 ft | 265 kts | 290° |
| 2026-05-06 14:52 | -33.16713 | -67.57775 | 19771 ft | 265 kts | 290° |
| 2026-05-06 14:52 | -33.16119 | -67.59853 | 19771 ft | 265 kts | 290° |
| 2026-05-06 14:52 | -33.15525 | -67.61928 | 19771 ft | 264 kts | 290° |
| 2026-05-06 14:53 | -33.14939 | -67.63974 | 19771 ft | 264 kts | 290° |
| 2026-05-06 14:53 | -33.14344 | -67.66054 | 19774 ft | 264 kts | 291° |
| 2026-05-06 14:53 | -33.13747 | -67.68134 | 19775 ft | 265 kts | 291° |
| 2026-05-06 14:53 | -33.13147 | -67.70225 | 19758 ft | 265 kts | 290° |
| 2026-05-06 14:54 | -33.12557 | -67.72284 | 19748 ft | 265 kts | 290° |
| 2026-05-06 14:54 | -33.11953 | -67.74386 | 19748 ft | 265 kts | 290° |
| 2026-05-06 14:54 | -33.11384 | -67.76455 | 19748 ft | 265 kts | 289° |
| 2026-05-06 14:54 | -33.10814 | -67.78559 | 19747 ft | 265 kts | 289° |
| 2026-05-06 14:55 | -33.10252 | -67.80639 | 19747 ft | 265 kts | 289° |
| 2026-05-06 14:55 | -33.09684 | -67.82742 | 19747 ft | 265 kts | 289° |
| 2026-05-06 14:55 | -33.09127 | -67.84803 | 19747 ft | 265 kts | 289° |
| 2026-05-06 14:55 | -33.08559 | -67.86900 | 19747 ft | 265 kts | 289° |
| 2026-05-06 14:56 | -33.07993 | -67.88992 | 19747 ft | 265 kts | 288° |
| 2026-05-06 14:56 | -33.07427 | -67.91083 | 19747 ft | 264 kts | 288° |
| 2026-05-06 14:56 | -33.06862 | -67.93168 | 19747 ft | 264 kts | 288° |
| 2026-05-06 14:56 | -33.06299 | -67.95242 | 19747 ft | 264 kts | 288° |
| 2026-05-06 14:57 | -33.05732 | -67.97332 | 19747 ft | 264 kts | 288° |
| 2026-05-06 14:57 | -33.05164 | -67.99420 | 19747 ft | 264 kts | 288° |
| 2026-05-06 14:57 | -33.04601 | -68.01492 | 19747 ft | 264 kts | 288° |
| 2026-05-06 14:57 | -33.04034 | -68.03577 | 19747 ft | 265 kts | 287° |
| 2026-05-06 14:58 | -33.03466 | -68.05662 | 19747 ft | 265 kts | 287° |
| 2026-05-06 14:58 | -33.02899 | -68.07744 | 19747 ft | 265 kts | 287° |
| 2026-05-06 14:58 | -33.02331 | -68.09827 | 19747 ft | 265 kts | 287° |
| 2026-05-06 14:58 | -33.01761 | -68.11917 | 19747 ft | 265 kts | 287° |
| 2026-05-06 14:59 | -33.01193 | -68.13996 | 19747 ft | 265 kts | 287° |
| 2026-05-06 14:59 | -33.00621 | -68.16087 | 19747 ft | 265 kts | 287° |
| 2026-05-06 14:59 | -33.00052 | -68.18171 | 19747 ft | 266 kts | 287° |
| 2026-05-06 14:59 | -32.99475 | -68.20275 | 19747 ft | 266 kts | 286° |
| 2026-05-06 15:00 | -32.98906 | -68.22356 | 19747 ft | 266 kts | 286° |
| 2026-05-06 15:00 | -32.98334 | -68.24441 | 19747 ft | 266 kts | 286° |
| 2026-05-06 15:00 | -32.97758 | -68.26540 | 19747 ft | 267 kts | 286° |
| 2026-05-06 15:00 | -32.97178 | -68.28655 | 19747 ft | 267 kts | 286° |
| 2026-05-06 15:01 | -32.96600 | -68.30759 | 19747 ft | 267 kts | 286° |
| 2026-05-06 15:01 | -32.96029 | -68.32836 | 19747 ft | 268 kts | 285° |
| 2026-05-06 15:01 | -32.95449 | -68.34944 | 19747 ft | 268 kts | 285° |
| 2026-05-06 15:01 | -32.94868 | -68.37054 | 19747 ft | 268 kts | 285° |
| 2026-05-06 15:02 | -32.94289 | -68.39156 | 19747 ft | 268 kts | 285° |
| 2026-05-06 15:02 | -32.93710 | -68.41259 | 19746 ft | 268 kts | 285° |
| 2026-05-06 15:02 | -32.93128 | -68.43368 | 19746 ft | 268 kts | 285° |
| 2026-05-06 15:02 | -32.92541 | -68.45492 | 19746 ft | 268 kts | 285° |
| 2026-05-06 15:03 | -32.91959 | -68.47599 | 19746 ft | 269 kts | 285° |
| 2026-05-06 15:03 | -32.91376 | -68.49708 | 19746 ft | 269 kts | 285° |
| 2026-05-06 15:03 | -32.90792 | -68.51819 | 19746 ft | 269 kts | 285° |
| 2026-05-06 15:03 | -32.90208 | -68.53928 | 19746 ft | 269 kts | 285° |
| 2026-05-06 15:04 | -32.89621 | -68.56042 | 19745 ft | 269 kts | 285° |
| 2026-05-06 15:04 | -32.89037 | -68.58149 | 19745 ft | 268 kts | 285° |
| 2026-05-06 15:04 | -32.88449 | -68.60267 | 19745 ft | 268 kts | 285° |
| 2026-05-06 15:04 | -32.87865 | -68.62370 | 19745 ft | 268 kts | 285° |
| 2026-05-06 15:05 | -32.87284 | -68.64459 | 19744 ft | 268 kts | 285° |
| 2026-05-06 15:05 | -32.86695 | -68.66576 | 19749 ft | 268 kts | 286° |
| 2026-05-06 15:05 | -32.86104 | -68.68701 | 19749 ft | 269 kts | 286° |
| 2026-05-06 15:05 | -32.85522 | -68.70791 | 19749 ft | 269 kts | 286° |
| 2026-05-06 15:06 | -32.84930 | -68.72912 | 19749 ft | 269 kts | 286° |
| 2026-05-06 15:06 | -32.84341 | -68.75024 | 19749 ft | 269 kts | 286° |
| 2026-05-06 15:06 | -32.83754 | -68.77126 | 19749 ft | 269 kts | 286° |
| 2026-05-06 15:06 | -32.83382 | -68.79269 | 19757 ft | 267 kts | 272° |
| 2026-05-06 15:07 | -32.83381 | -68.81476 | 19831 ft | 264 kts | 268° |
| 2026-05-06 15:07 | -32.83448 | -68.83649 | 19906 ft | 262 kts | 267° |
| 2026-05-06 15:07 | -32.83534 | -68.85809 | 19981 ft | 261 kts | 266° |
| 2026-05-06 15:07 | -32.83628 | -68.87959 | 20056 ft | 260 kts | 266° |
| 2026-05-06 15:08 | -32.83725 | -68.90103 | 20130 ft | 259 kts | 266° |
| 2026-05-06 15:08 | -32.83822 | -68.92224 | 20204 ft | 258 kts | 266° |
| 2026-05-06 15:08 | -32.83919 | -68.94334 | 20278 ft | 257 kts | 265° |
| 2026-05-06 15:08 | -32.84017 | -68.96465 | 20352 ft | 257 kts | 265° |
| 2026-05-06 15:09 | -32.84114 | -68.98589 | 20425 ft | 256 kts | 265° |
| 2026-05-06 15:09 | -32.84211 | -69.00699 | 20498 ft | 256 kts | 265° |
| 2026-05-06 15:09 | -32.84306 | -69.02790 | 20571 ft | 256 kts | 265° |
| 2026-05-06 15:09 | -32.84402 | -69.04897 | 20643 ft | 255 kts | 265° |
| 2026-05-06 15:10 | -32.84498 | -69.07024 | 20716 ft | 255 kts | 265° |
| 2026-05-06 15:10 | -32.84593 | -69.09129 | 20788 ft | 255 kts | 264° |
| 2026-05-06 15:10 | -32.84687 | -69.11219 | 20859 ft | 255 kts | 264° |
| 2026-05-06 15:10 | -32.84781 | -69.13328 | 20931 ft | 255 kts | 264° |
| 2026-05-06 15:11 | -32.84874 | -69.15423 | 21002 ft | 255 kts | 264° |
| 2026-05-06 15:11 | -32.84967 | -69.17521 | 21073 ft | 255 kts | 264° |
| 2026-05-06 15:11 | -32.85062 | -69.19647 | 21145 ft | 255 kts | 264° |
| 2026-05-06 15:11 | -32.85153 | -69.21728 | 21215 ft | 254 kts | 264° |
| 2026-05-06 15:12 | -32.85245 | -69.23819 | 21285 ft | 254 kts | 264° |
| 2026-05-06 15:12 | -32.85337 | -69.25922 | 21355 ft | 254 kts | 264° |
| 2026-05-06 15:12 | -32.85429 | -69.28028 | 21425 ft | 254 kts | 264° |
| 2026-05-06 15:12 | -32.85519 | -69.30122 | 21495 ft | 254 kts | 264° |
| 2026-05-06 15:13 | -32.85611 | -69.32233 | 21565 ft | 254 kts | 264° |
| 2026-05-06 15:13 | -32.85701 | -69.34325 | 21634 ft | 254 kts | 264° |
| 2026-05-06 15:13 | -32.85789 | -69.36404 | 21703 ft | 254 kts | 264° |
| 2026-05-06 15:13 | -32.85878 | -69.38485 | 21812 ft | 252 kts | 264° |
| 2026-05-06 15:14 | -32.85967 | -69.40572 | 21931 ft | 250 kts | 264° |
| 2026-05-06 15:14 | -32.86053 | -69.42619 | 22048 ft | 249 kts | 264° |
| 2026-05-06 15:14 | -32.86140 | -69.44671 | 22165 ft | 248 kts | 264° |
| 2026-05-06 15:14 | -32.86226 | -69.46728 | 22283 ft | 247 kts | 263° |
| 2026-05-06 15:15 | -32.86311 | -69.48755 | 22400 ft | 246 kts | 263° |
| 2026-05-06 15:15 | -32.86396 | -69.50785 | 22517 ft | 246 kts | 263° |
| 2026-05-06 15:15 | -32.86481 | -69.52824 | 22635 ft | 245 kts | 263° |
| 2026-05-06 15:15 | -32.86564 | -69.54845 | 22752 ft | 245 kts | 263° |
| 2026-05-06 15:16 | -32.86646 | -69.56834 | 22867 ft | 244 kts | 263° |
| 2026-05-06 15:16 | -32.86730 | -69.58873 | 22984 ft | 244 kts | 263° |
| 2026-05-06 15:16 | -32.86814 | -69.60877 | 23100 ft | 243 kts | 263° |
| 2026-05-06 15:16 | -32.86895 | -69.62871 | 23215 ft | 243 kts | 263° |
| 2026-05-06 15:17 | -32.86977 | -69.64878 | 23330 ft | 243 kts | 263° |
| 2026-05-06 15:17 | -32.87058 | -69.66885 | 23454 ft | 242 kts | 264° |
| 2026-05-06 15:17 | -32.87137 | -69.68871 | 23577 ft | 242 kts | 263° |
| 2026-05-06 15:17 | -32.87218 | -69.70871 | 23701 ft | 242 kts | 263° |
| 2026-05-06 15:18 | -32.87299 | -69.72888 | 23792 ft | 243 kts | 263° |
| 2026-05-06 15:18 | -32.87380 | -69.74903 | 23811 ft | 246 kts | 263° |
| 2026-05-06 15:18 | -32.87461 | -69.76936 | 23822 ft | 249 kts | 263° |
| 2026-05-06 15:18 | -32.87544 | -69.79023 | 23833 ft | 252 kts | 263° |
| 2026-05-06 15:19 | -32.87625 | -69.81086 | 23843 ft | 254 kts | 263° |
| 2026-05-06 15:19 | -32.87707 | -69.83205 | 23854 ft | 255 kts | 263° |
| 2026-05-06 15:19 | -32.87790 | -69.85304 | 23865 ft | 256 kts | 263° |
| 2026-05-06 15:19 | -32.87872 | -69.87421 | 23877 ft | 257 kts | 263° |
| 2026-05-06 15:20 | -32.87953 | -69.89545 | 23889 ft | 258 kts | 263° |
| 2026-05-06 15:20 | -32.88036 | -69.91681 | 23901 ft | 258 kts | 263° |
| 2026-05-06 15:20 | -32.88119 | -69.93810 | 23912 ft | 258 kts | 263° |
| 2026-05-06 15:20 | -32.88201 | -69.95941 | 23923 ft | 259 kts | 263° |
| 2026-05-06 15:21 | -32.88282 | -69.98085 | 23934 ft | 259 kts | 263° |
| 2026-05-06 15:21 | -32.88296 | -70.00236 | 23942 ft | 261 kts | 269° |
| 2026-05-06 15:21 | -32.88124 | -70.02392 | 23955 ft | 262 kts | 271° |
| 2026-05-06 15:21 | -32.87932 | -70.04572 | 23659 ft | 273 kts | 271° |
| 2026-05-06 15:22 | -32.87726 | -70.06851 | 23409 ft | 279 kts | 272° |
| 2026-05-06 15:22 | -32.87516 | -70.09165 | 23156 ft | 284 kts | 272° |
| 2026-05-06 15:22 | -32.87304 | -70.11478 | 22907 ft | 287 kts | 272° |
| 2026-05-06 15:22 | -32.87085 | -70.13861 | 22651 ft | 290 kts | 272° |
| 2026-05-06 15:23 | -32.86869 | -70.16216 | 22401 ft | 291 kts | 272° |
| 2026-05-06 15:23 | -32.86649 | -70.18595 | 22149 ft | 293 kts | 272° |
| 2026-05-06 15:23 | -32.86425 | -70.21021 | 21893 ft | 294 kts | 273° |
| 2026-05-06 15:23 | -32.86201 | -70.23435 | 21638 ft | 294 kts | 273° |
| 2026-05-06 15:24 | -32.85980 | -70.25823 | 21386 ft | 294 kts | 273° |
| 2026-05-06 15:24 | -32.85756 | -70.28231 | 21132 ft | 294 kts | 273° |
| 2026-05-06 15:24 | -32.85529 | -70.30662 | 20875 ft | 295 kts | 273° |
| 2026-05-06 15:24 | -32.85304 | -70.33080 | 20621 ft | 295 kts | 273° |
| 2026-05-06 15:25 | -32.85079 | -70.35507 | 20365 ft | 295 kts | 273° |
| 2026-05-06 15:25 | -32.84857 | -70.37920 | 19914 ft | 302 kts | 274° |
| 2026-05-06 15:25 | -32.84629 | -70.40359 | 19468 ft | 290 kts | 274° |
| 2026-05-06 15:25 | -32.84412 | -70.42671 | 18837 ft | 278 kts | 274° |
| 2026-05-06 15:26 | -32.84201 | -70.44913 | 18204 ft | 270 kts | 274° |
| 2026-05-06 15:26 | -32.83995 | -70.47116 | 17567 ft | 264 kts | 274° |
| 2026-05-06 15:26 | -32.83794 | -70.49246 | 16940 ft | 260 kts | 275° |
| 2026-05-06 15:26 | -32.83597 | -70.51345 | 16315 ft | 257 kts | 275° |
| 2026-05-06 15:27 | -32.83397 | -70.53462 | 15680 ft | 256 kts | 275° |
| 2026-05-06 15:27 | -32.83202 | -70.55527 | 15057 ft | 254 kts | 275° |
| 2026-05-06 15:27 | -32.83004 | -70.57616 | 14424 ft | 254 kts | 275° |
| 2026-05-06 15:27 | -32.82809 | -70.59676 | 13799 ft | 253 kts | 275° |
| 2026-05-06 15:28 | -32.82614 | -70.61751 | 13169 ft | 253 kts | 276° |
| 2026-05-06 15:28 | -32.82418 | -70.63803 | 12545 ft | 253 kts | 276° |
| 2026-05-06 15:28 | -32.82223 | -70.65864 | 11920 ft | 253 kts | 276° |
| 2026-05-06 15:28 | -32.82062 | -70.67929 | 11293 ft | 253 kts | 268° |
| 2026-05-06 15:29 | -32.82631 | -70.69867 | 10682 ft | 254 kts | 240° |
| 2026-05-06 15:29 | -32.83540 | -70.71355 | 10129 ft | 248 kts | 232° |
| 2026-05-06 15:29 | -32.84738 | -70.72930 | 9146 ft | 243 kts | 227° |
| 2026-05-06 15:29 | -32.85899 | -70.74317 | 8278 ft | 238 kts | 226° |
| 2026-05-06 15:30 | -32.86995 | -70.75575 | 7461 ft | 235 kts | 225° |
| 2026-05-06 15:30 | -32.88120 | -70.76842 | 6618 ft | 233 kts | 225° |
| 2026-05-06 15:30 | -32.89281 | -70.78139 | 5902 ft | 224 kts | 225° |
| 2026-05-06 15:30 | -32.90338 | -70.79313 | 5901 ft | 177 kts | 225° |
| 2026-05-06 15:31 | -32.91134 | -70.80199 | 5789 ft | 143 kts | 226° |
| 2026-05-06 15:31 | -32.91914 | -70.80775 | 5785 ft | 126 kts | 203° |
| 2026-05-06 15:31 | -32.92714 | -70.81055 | 5788 ft | 115 kts | 197° |
| 2026-05-06 15:32 | -32.94238 | -70.81411 | 5808 ft | 125 kts | 192° |
| 2026-05-06 15:32 | -32.95198 | -70.81583 | 6066 ft | 147 kts | 190° |
| 2026-05-06 15:32 | -32.96206 | -70.81744 | 6569 ft | 147 kts | 190° |
| 2026-05-06 15:32 | -32.97226 | -70.81901 | 6950 ft | 155 kts | 190° |
| 2026-05-06 15:33 | -32.98360 | -70.82072 | 7000 ft | 169 kts | 189° |
| 2026-05-06 15:33 | -32.99414 | -70.82224 | 6984 ft | 137 kts | 189° |
| 2026-05-06 15:33 | -33.00325 | -70.82330 | 6994 ft | 134 kts | 184° |
| 2026-05-06 15:33 | -33.01255 | -70.82320 | 6995 ft | 133 kts | 181° |
| 2026-05-06 15:34 | -33.02184 | -70.82284 | 6949 ft | 133 kts | 180° |
| 2026-05-06 15:34 | -33.03147 | -70.82239 | 6698 ft | 143 kts | 180° |
| 2026-05-06 15:34 | -33.04149 | -70.82187 | 6517 ft | 143 kts | 179° |
| 2026-05-06 15:34 | -33.05111 | -70.82123 | 6478 ft | 136 kts | 178° |
| 2026-05-06 15:35 | -33.06081 | -70.82048 | 6234 ft | 144 kts | 178° |
| 2026-05-06 15:35 | -33.06975 | -70.81976 | 6069 ft | 122 kts | 178° |
| 2026-05-06 15:35 | -33.07765 | -70.81721 | 5808 ft | 116 kts | 155° |
| 2026-05-06 15:35 | -33.08479 | -70.81315 | 5556 ft | 113 kts | 158° |
| 2026-05-06 15:36 | -33.09213 | -70.80983 | 5312 ft | 116 kts | 163° |
| 2026-05-06 15:36 | -33.09993 | -70.80713 | 5068 ft | 117 kts | 167° |
| 2026-05-06 15:36 | -33.10745 | -70.80513 | 4991 ft | 106 kts | 171° |
| 2026-05-06 15:36 | -33.11445 | -70.80366 | 4986 ft | 99 kts | 173° |
| 2026-05-06 15:37 | -33.12116 | -70.80254 | 4987 ft | 95 kts | 177° |
| 2026-05-06 15:37 | -33.12730 | -70.80430 | 4991 ft | 94 kts | 206° |
| 2026-05-06 15:37 | -33.13363 | -70.80718 | 4996 ft | 100 kts | 201° |
| 2026-05-06 15:37 | -33.14056 | -70.80948 | 4996 ft | 106 kts | 195° |
| 2026-05-06 15:38 | -33.14802 | -70.81113 | 4994 ft | 110 kts | 191° |
| 2026-05-06 15:38 | -33.15564 | -70.81218 | 4992 ft | 111 kts | 187° |
| 2026-05-06 15:38 | -33.16337 | -70.81278 | 4992 ft | 111 kts | 185° |
| 2026-05-06 15:38 | -33.17113 | -70.81306 | 4991 ft | 112 kts | 183° |
| 2026-05-06 15:39 | -33.17888 | -70.81311 | 4991 ft | 112 kts | 182° |
| 2026-05-06 15:39 | -33.18666 | -70.81300 | 4991 ft | 112 kts | 181° |
| 2026-05-06 15:39 | -33.19442 | -70.81279 | 4976 ft | 114 kts | 180° |
| 2026-05-06 15:39 | -33.20234 | -70.81249 | 4845 ft | 112 kts | 180° |
| 2026-05-06 15:40 | -33.21011 | -70.81215 | 4712 ft | 112 kts | 180° |
| 2026-05-06 15:40 | -33.21791 | -70.81177 | 4576 ft | 112 kts | 180° |
| 2026-05-06 15:40 | -33.22576 | -70.81139 | 4434 ft | 113 kts | 180° |
| 2026-05-06 15:40 | -33.23358 | -70.81099 | 4290 ft | 113 kts | 179° |
| 2026-05-06 15:41 | -33.24135 | -70.81059 | 4144 ft | 113 kts | 179° |
| 2026-05-06 15:41 | -33.24923 | -70.81016 | 3994 ft | 114 kts | 179° |
| 2026-05-06 15:41 | -33.25713 | -70.80975 | 3841 ft | 114 kts | 179° |
| 2026-05-06 15:41 | -33.26504 | -70.80933 | 3687 ft | 114 kts | 179° |
| 2026-05-06 15:42 | -33.27301 | -70.80890 | 3532 ft | 114 kts | 179° |
| 2026-05-06 15:42 | -33.28088 | -70.80848 | 3377 ft | 114 kts | 179° |
| 2026-05-06 15:42 | -33.28883 | -70.80805 | 3221 ft | 115 kts | 179° |
| 2026-05-06 15:42 | -33.29676 | -70.80763 | 3065 ft | 114 kts | 179° |
| 2026-05-06 15:43 | -33.30473 | -70.80720 | 2908 ft | 114 kts | 179° |
| 2026-05-06 15:43 | -33.31263 | -70.80678 | 2753 ft | 114 kts | 179° |
| 2026-05-06 15:43 | -33.32050 | -70.80635 | 2599 ft | 114 kts | 179° |
| 2026-05-06 15:43 | -33.32836 | -70.80591 | 2445 ft | 114 kts | 178° |
| 2026-05-06 15:44 | -33.33633 | -70.80546 | 2290 ft | 114 kts | 179° |
| 2026-05-06 15:44 | -33.34428 | -70.80505 | 2136 ft | 114 kts | 179° |
| 2026-05-06 15:44 | -33.35200 | -70.80466 | 1986 ft | 114 kts | 179° |
| 2026-05-06 15:44 | -33.35999 | -70.80424 | 1832 ft | 114 kts | 179° |
| 2026-05-06 15:45 | -33.36727 | -70.80386 | 1694 ft | 115 kts | 179° |
| 2026-05-06 15:45 | -33.37468 | -70.80350 | 1564 ft | 87 kts | 178° |
| 2026-05-06 15:45 | -33.37962 | -70.80332 | 1560 ft | 37 kts | 176° |
| 2026-05-06 15:45 | -33.38068 | -70.80319 | 1560 ft | 18 kts | 178° |
| 2026-05-06 15:46 | -33.38300 | -70.80298 | 1560 ft | 48 kts | 173° |
| 2026-05-06 15:46 | -33.39077 | -70.80371 | 1560 ft | 53 kts | 150° |
| 2026-05-06 15:46 | -33.39346 | -70.80198 | 1560 ft | 48 kts | 144° |
| 2026-05-06 15:47 | -33.39553 | -70.79944 | 1560 ft | 39 kts | 90° |
| 2026-05-06 15:47 | -33.39433 | -70.79772 | 1559 ft | 25 kts | 75° |
| 2026-05-06 15:47 | -33.39362 | -70.79624 | 1560 ft | 25 kts | 115° |
| 2026-05-06 15:47 | -33.39554 | -70.79282 | 1561 ft | 99 kts | 128° |